| time (UTC) | temp C | wind direction | speed KPH | gust KPH | rain 1hr cm | rain 24hr cm | rain mn cm | humidity % | barometer mb |
| 20260507101538 | 7 | 77 | 1.6 | 6.4 | 0.00 | 0.38 | 0.36 | 95 | 1014.5 |
| 20260507100047 | 7 | 28 | 1.6 | 4.8 | 0.00 | 0.38 | 0.36 | 95 | 1014.4 |
| 20260507094545 | 7 | 22 | 1.6 | 8.0 | 0.00 | 0.41 | 0.36 | 95 | 1014.2 |
| 20260507093044 | 7 | 27 | 1.6 | 4.8 | 0.00 | 0.41 | 0.36 | 95 | 1014.1 |
| 20260507091543 | 7 | 5 | 1.6 | 4.8 | 0.00 | 0.41 | 0.36 | 95 | 1014.0 |
| 20260507090038 | 7 | 340 | 1.6 | 4.8 | 0.00 | 0.41 | 0.36 | 95 | 1013.8 |
| 20260507084539 | 7 | 21 | 1.6 | 4.8 | 0.00 | 0.43 | 0.36 | 95 | 1013.6 |
| 20260507083045 | 7 | 355 | 1.6 | 6.4 | 0.00 | 0.43 | 0.36 | 95 | 1013.5 |
| 20260507081544 | 7 | 303 | 1.6 | 8.0 | 0.00 | 0.43 | 0.36 | 95 | 1013.3 |
| 20260507080042 | 7 | 15 | 0.0 | 8.0 | 0.00 | 0.43 | 0.36 | 95 | 1013.1 |
| 20260507074546 | 7 | 360 | 4.8 | 9.7 | 0.00 | 0.51 | 0.36 | 95 | 1012.8 |
| 20260507073044 | 7 | 14 | 3.2 | 8.0 | 0.00 | 0.51 | 0.36 | 96 | 1012.7 |
| 20260507071538 | 7 | 19 | 3.2 | 6.4 | 0.00 | 0.51 | 0.36 | 96 | 1012.5 |
| 20260507070048 | 7 | 11 | 3.2 | 6.4 | 0.00 | 0.51 | 0.36 | 96 | 1012.5 |
| 20260507064539 | 7 | 10 | 1.6 | 4.8 | 0.00 | 0.64 | 0.36 | 96 | 1012.3 |
| 20260507063055 | 7 | 9 | 1.6 | 6.4 | 0.00 | 0.64 | 0.36 | 96 | 1012.2 |
| 20260507061547 | 7 | 350 | 3.2 | 9.7 | 0.03 | 0.64 | 0.36 | 96 | 1012.1 |
| 20260507060046 | 7 | 13 | 1.6 | 12.9 | 0.03 | 0.64 | 0.36 | 96 | 1011.9 |
| 20260507054543 | 7 | 355 | 1.6 | 8.0 | 0.05 | 0.84 | 0.36 | 96 | 1011.6 |
| 20260507053049 | 7 | 336 | 0.0 | 8.0 | 0.08 | 0.84 | 0.36 | 96 | 1011.4 |
| 20260507051546 | 7 | 309 | 1.6 | 8.0 | 0.05 | 0.81 | 0.33 | 96 | 1011.3 |
| 20260507050046 | 7 | 0 | 1.6 | 6.4 | 0.08 | 0.81 | 0.33 | 96 | 1011.2 |
| 20260507044545 | 7 | 0 | 0.0 | 14.5 | 0.05 | 0.91 | 0.30 | 96 | 1011.1 |
| 20260507043040 | 7 | 0 | 0.0 | 6.4 | 0.05 | 0.89 | 0.28 | 96 | 1011.0 |
| 20260507041546 | 7 | 350 | 1.6 | 6.4 | 0.10 | 0.89 | 0.28 | 96 | 1010.8 |
| 20260507040046 | 7 | 5 | 1.6 | 12.9 | 0.10 | 0.86 | 0.25 | 96 | 1010.8 |
| 20260507034544 | 7 | 350 | 1.6 | 6.4 | 0.10 | 0.91 | 0.25 | 96 | 1010.6 |
| 20260507033046 | 7 | 350 | 3.2 | 14.5 | 0.08 | 0.89 | 0.23 | 96 | 1010.4 |
| 20260507031540 | 7 | 347 | 4.8 | 9.7 | 0.03 | 0.84 | 0.18 | 96 | 1010.5 |
| 20260507030041 | 7 | 23 | 1.6 | 12.9 | 0.00 | 0.81 | 0.15 | 96 | 1010.3 |
| 20260507024545 | 7 | 347 | 1.6 | 8.0 | 0.00 | 1.02 | 0.15 | 96 | 1010.2 |
| 20260507023044 | 7 | 320 | 0.0 | 8.0 | 0.03 | 1.02 | 0.15 | 96 | 1010.1 |
| 20260507021544 | 7 | 351 | 0.0 | 8.0 | 0.03 | 1.02 | 0.15 | 96 | 1010.0 |
| 20260507020043 | 7 | 320 | 1.6 | 12.9 | 0.05 | 1.02 | 0.15 | 96 | 1009.9 |
| 20260507014551 | 7 | 0 | 0.0 | 8.0 | 0.08 | 1.30 | 0.15 | 96 | 1009.9 |
| 20260507013051 | 7 | 317 | 1.6 | 8.0 | 0.05 | 1.27 | 0.13 | 96 | 1009.7 |
| 20260507011545 | 7 | 0 | 1.6 | 6.4 | 0.05 | 1.27 | 0.13 | 96 | 1009.7 |
| 20260507010054 | 7 | 0 | 0.0 | 9.7 | 0.03 | 1.24 | 0.10 | 96 | 1009.8 |
| 20260507004545 | 7 | 338 | 1.6 | 6.4 | 0.00 | 1.52 | 0.08 | 96 | 1009.8 |
| 20260507003039 | 7 | 314 | 1.6 | 8.0 | 0.03 | 1.52 | 0.08 | 96 | 1009.7 |
| 20260507001550 | 7 | 294 | 1.6 | 12.9 | 0.03 | 1.52 | 0.08 | 96 | 1009.5 |
| 20260507000045 | 7 | 0 | 3.2 | 8.0 | 0.03 | 1.52 | 0.08 | 96 | 1009.4 |
| 20260506234545 | 7 | 296 | 3.2 | 14.5 | 0.05 | 1.85 | 0.08 | 96 | 1009.5 |
| 20260506233056 | 7 | 333 | 3.2 | 8.0 | 0.03 | 1.83 | 0.05 | 96 | 1009.3 |
| 20260506231543 | 7 | 317 | 1.6 | 12.9 | 0.05 | 1.83 | 0.05 | 96 | 1009.3 |
| 20260506230039 | 7 | 314 | 3.2 | 9.7 | 0.05 | 1.83 | 0.05 | 96 | 1009.3 |
| 20260506224546 | 7 | 360 | 3.2 | 12.9 | 0.03 | 2.21 | 0.03 | 96 | 1009.3 |
| 20260506223044 | 7 | 0 | 1.6 | 8.0 | 0.03 | 2.21 | 0.03 | 96 | 1009.2 |
| 20260506221553 | 7 | 342 | 1.6 | 6.4 | 0.00 | 2.18 | 0.00 | 96 | 1009.2 |
| 20260506220044 | 7 | 355 | 1.6 | 11.3 | 0.00 | 2.18 | 0.00 | 96 | 1009.2 |
| 20260506214543 | 7 | 9 | 3.2 | 6.4 | 0.00 | 2.74 | 2.18 | 95 | 1009.1 |
| 20260506213038 | 7 | 355 | 1.6 | 6.4 | 0.00 | 2.74 | 2.18 | 95 | 1009.0 |
| 20260506211538 | 7 | 319 | 3.2 | 8.0 | 0.00 | 2.74 | 2.18 | 95 | 1009.1 |
| 20260506210045 | 7 | 348 | 1.6 | 8.0 | 0.00 | 2.74 | 2.18 | 95 | 1008.9 |
| 20260506204545 | 7 | 327 | 3.2 | 8.0 | 0.00 | 2.87 | 2.18 | 95 | 1008.9 |
| 20260506203043 | 7 | 0 | 3.2 | 9.7 | 0.00 | 2.87 | 2.18 | 95 | 1008.8 |
| 20260506201543 | 7 | 26 | 3.2 | 9.7 | 0.00 | 2.87 | 2.18 | 95 | 1008.8 |
| 20260506200044 | 7 | 281 | 1.6 | 9.7 | 0.00 | 2.87 | 2.18 | 95 | 1008.7 |
| 20260506194545 | 7 | 286 | 3.2 | 9.7 | 0.00 | 2.95 | 2.18 | 95 | 1008.7 |
| 20260506193044 | 7 | 326 | 3.2 | 12.9 | 0.00 | 2.95 | 2.18 | 95 | 1008.4 |
| 20260506191543 | 7 | 333 | 1.6 | 6.4 | 0.00 | 2.95 | 2.18 | 95 | 1008.2 |
| 20260506190044 | 7 | 355 | 1.6 | 8.0 | 0.00 | 2.95 | 2.18 | 95 | 1008.1 |
| 20260506184543 | 7 | 303 | 3.2 | 6.4 | 0.00 | 2.95 | 2.18 | 95 | 1008.0 |
| 20260506183039 | 7 | 309 | 1.6 | 9.7 | 0.00 | 2.95 | 2.18 | 95 | 1007.9 |
| 20260506181545 | 7 | 10 | 1.6 | 6.4 | 0.00 | 2.95 | 2.18 | 95 | 1007.6 |
| 20260506180046 | 8 | 350 | 3.2 | 9.7 | 0.00 | 2.95 | 2.18 | 95 | 1007.5 |
| 20260506174546 | 8 | 0 | 1.6 | 8.0 | 0.00 | 2.95 | 2.18 | 95 | 1007.5 |
| 20260506173049 | 8 | 21 | 1.6 | 6.4 | 0.00 | 2.95 | 2.18 | 95 | 1007.3 |
| 20260506171548 | 8 | 360 | 3.2 | 11.3 | 0.00 | 2.95 | 2.18 | 95 | 1007.3 |
| 20260506170040 | 8 | 317 | 1.6 | 6.4 | 0.00 | 2.95 | 2.18 | 95 | 1007.2 |
| 20260506164554 | 8 | 327 | 1.6 | 6.4 | 0.00 | 2.95 | 2.18 | 95 | 1007.1 |
| 20260506163045 | 8 | 324 | 0.0 | 8.0 | 0.00 | 2.95 | 2.18 | 96 | 1007.1 |
| 20260506161544 | 8 | 338 | 1.6 | 8.0 | 0.00 | 2.95 | 2.18 | 96 | 1007.0 |
| 20260506160049 | 8 | 305 | 3.2 | 12.9 | 0.00 | 2.95 | 2.18 | 96 | 1007.1 |
| 20260506154551 | 8 | 321 | 1.6 | 9.7 | 0.00 | 2.95 | 2.18 | 95 | 1007.0 |
| 20260506153038 | 8 | 9 | 1.6 | 4.8 | 0.00 | 2.95 | 2.18 | 96 | 1007.1 |
| 20260506151545 | 8 | 350 | 1.6 | 8.0 | 0.00 | 2.95 | 2.18 | 95 | 1007.0 |
| 20260506150045 | 8 | 21 | 1.6 | 4.8 | 0.00 | 2.95 | 2.18 | 95 | 1007.0 |
| 20260506144546 | 8 | 0 | 1.6 | 6.4 | 0.00 | 2.95 | 2.18 | 95 | 1006.9 |
| 20260506143042 | 8 | 61 | 1.6 | 6.4 | 0.00 | 2.95 | 2.18 | 95 | 1006.8 |
| 20260506141601 | 8 | 43 | 1.6 | 4.8 | 0.00 | 2.95 | 2.18 | 95 | 1006.6 |
| 20260506140040 | 8 | 22 | 3.2 | 6.4 | 0.03 | 2.95 | 2.18 | 95 | 1006.6 |
| 20260506134537 | 8 | 5 | 1.6 | 6.4 | 0.03 | 2.95 | 2.18 | 95 | 1006.5 |
| 20260506133045 | 8 | 23 | 0.0 | 4.8 | 0.03 | 2.95 | 2.18 | 95 | 1006.6 |
| 20260506131544 | 8 | 25 | 1.6 | 8.0 | 0.03 | 2.95 | 2.18 | 95 | 1006.6 |
| 20260506130045 | 8 | 43 | 0.0 | 6.4 | 0.00 | 2.95 | 2.16 | 96 | 1006.4 |
| 20260506124543 | 8 | 360 | 0.0 | 4.8 | 0.00 | 2.95 | 2.16 | 95 | 1006.5 |
| 20260506123042 | 8 | 67 | 1.6 | 9.7 | 0.00 | 2.95 | 2.16 | 95 | 1006.3 |
| 20260506121538 | 8 | 15 | 3.2 | 6.4 | 0.00 | 2.95 | 2.16 | 95 | 1006.2 |
| 20260506120109 | 8 | 24 | 1.6 | 6.4 | 0.00 | 2.95 | 2.16 | 95 | 1006.0 |
| 20260506114547 | 9 | 46 | 1.6 | 8.0 | 0.00 | 2.95 | 2.16 | 95 | 1005.9 |
| 20260506113040 | 9 | 67 | 1.6 | 8.0 | 0.00 | 2.95 | 2.16 | 96 | 1005.9 |
| 20260506111541 | 8 | 0 | 1.6 | 6.4 | 0.00 | 2.95 | 2.16 | 96 | 1005.8 |
| 20260506110038 | 9 | 21 | 3.2 | 6.4 | 0.00 | 2.95 | 2.16 | 96 | 1005.8 |
| 20260506104547 | 8 | 13 | 0.0 | 4.8 | 0.00 | 2.95 | 2.16 | 96 | 1005.8 |
| 20260506103044 | 8 | 31 | 3.2 | 8.0 | 0.00 | 2.95 | 2.16 | 96 | 1005.7 |